Time,TemperatureF,DewpointF,PressureIn,WindDirection,WindDirectionDegrees,WindSpeedMPH,WindSpeedGustMPH,Humidity,HourlyPrecipIn,Conditions,Clouds,dailyrainin,SoftwareType,DateUTC
2013-07-06 00:01:00,76.8,63.0,29.94,SSE,163,0.0,4.0,62,0.00,,,0.00,weatherlink.com 1.10,2013-07-06 05:01:00,
2013-07-06 00:16:00,76.5,63.0,29.95,SSE,161,3.0,5.0,63,0.00,,,0.00,weatherlink.com 1.10,2013-07-06 05:16:00,
2013-07-06 00:31:00,76.4,63.0,29.94,SSE,150,2.0,4.0,63,0.00,,,0.00,weatherlink.com 1.10,2013-07-06 05:31:00,
2013-07-06 00:46:00,75.9,63.0,29.94,SSE,149,1.0,4.0,64,0.00,,,0.00,weatherlink.com 1.10,2013-07-06 05:46:00,
2013-07-06 01:01:00,75.3,63.0,29.94,SSE,154,1.0,4.0,65,0.00,,,0.00,weatherlink.com 1.10,2013-07-06 06:01:00,
2013-07-06 01:16:00,75.5,63.0,29.94,South,173,4.0,7.0,65,0.00,,,0.00,weatherlink.com 1.10,2013-07-06 06:16:00,
2013-07-06 01:31:00,75.3,63.0,29.94,South,171,4.0,4.0,65,0.00,,,0.00,weatherlink.com 1.10,2013-07-06 06:31:00,
2013-07-06 01:46:00,74.9,63.0,29.93,SSE,162,3.0,6.0,66,0.00,,,0.00,weatherlink.com 1.10,2013-07-06 06:46:00,
2013-07-06 02:01:00,74.3,63.0,29.93,South,183,3.0,6.0,68,0.00,,,0.00,weatherlink.com 1.10,2013-07-06 07:01:00,
2013-07-06 02:16:00,73.9,63.0,29.93,South,184,6.0,7.0,69,0.00,,,0.00,weatherlink.com 1.10,2013-07-06 07:16:00,
2013-07-06 02:31:00,73.5,64.0,29.93,South,189,3.0,8.0,71,0.00,,,0.00,weatherlink.com 1.10,2013-07-06 07:31:00,
2013-07-06 02:46:00,72.7,64.0,29.93,South,185,4.0,7.0,73,0.00,,,0.00,weatherlink.com 1.10,2013-07-06 07:46:00,
2013-07-06 03:01:00,72.6,64.0,29.93,South,184,5.0,6.0,74,0.00,,,0.00,weatherlink.com 1.10,2013-07-06 08:01:00,
2013-07-06 03:16:00,72.1,64.0,29.93,South,180,5.0,7.0,75,0.00,,,0.00,weatherlink.com 1.10,2013-07-06 08:16:00,
2013-07-06 03:31:00,72.1,64.0,29.93,South,186,3.0,8.0,75,0.00,,,0.00,weatherlink.com 1.10,2013-07-06 08:31:00,
2013-07-06 03:46:00,71.6,64.0,29.93,South,180,5.0,8.0,76,0.00,,,0.00,weatherlink.com 1.10,2013-07-06 08:46:00,
2013-07-06 04:01:00,71.5,64.0,29.93,South,177,5.0,6.0,77,0.00,,,0.00,weatherlink.com 1.10,2013-07-06 09:01:00,
2013-07-06 04:16:00,71.3,64.0,29.93,South,175,3.0,6.0,77,0.00,,,0.00,weatherlink.com 1.10,2013-07-06 09:16:00,
2013-07-06 04:31:00,71.3,64.0,29.94,South,173,2.0,5.0,77,0.00,,,0.00,weatherlink.com 1.10,2013-07-06 09:31:00,
2013-07-06 04:46:00,71.7,64.0,29.93,South,178,4.0,7.0,77,0.00,,,0.00,weatherlink.com 1.10,2013-07-06 09:46:00,
2013-07-06 05:01:00,71.6,64.0,29.93,South,185,5.0,8.0,77,0.00,,,0.00,weatherlink.com 1.10,2013-07-06 10:01:00,
2013-07-06 05:16:00,71.5,64.0,29.93,South,184,2.0,6.0,77,0.00,,,0.00,weatherlink.com 1.10,2013-07-06 10:16:00,
2013-07-06 05:31:00,71.5,64.0,29.93,SSE,158,2.0,7.0,76,0.00,,,0.00,weatherlink.com 1.10,2013-07-06 10:31:00,
2013-07-06 05:46:00,71.6,64.0,29.94,SSE,157,1.0,5.0,76,0.00,,,0.00,weatherlink.com 1.10,2013-07-06 10:46:00,
2013-07-06 06:01:00,71.2,64.0,29.94,SSE,156,1.0,2.0,77,0.00,,,0.00,weatherlink.com 1.10,2013-07-06 11:01:00,
2013-07-06 06:16:00,71.0,63.0,29.94,SE,140,5.0,9.0,76,0.00,,,0.00,weatherlink.com 1.10,2013-07-06 11:16:00,
2013-07-06 06:31:00,70.6,63.0,29.95,SE,140,3.0,5.0,76,0.00,,,0.00,weatherlink.com 1.10,2013-07-06 11:31:00,
2013-07-06 06:46:00,70.4,63.0,29.95,South,182,4.0,8.0,76,0.00,,,0.00,weatherlink.com 1.10,2013-07-06 11:46:00,
2013-07-06 07:01:00,70.7,63.0,29.95,South,179,2.0,5.0,76,0.00,,,0.00,weatherlink.com 1.10,2013-07-06 12:01:00,
2013-07-06 07:16:00,70.8,63.0,29.96,South,179,1.0,2.0,76,0.00,,,0.00,weatherlink.com 1.10,2013-07-06 12:16:00,
2013-07-06 07:31:00,71.5,63.0,29.96,South,183,2.0,5.0,75,0.00,,,0.00,weatherlink.com 1.10,2013-07-06 12:31:00,
2013-07-06 07:46:00,71.7,63.0,29.97,South,183,3.0,7.0,74,0.00,,,0.00,weatherlink.com 1.10,2013-07-06 12:46:00,
2013-07-06 08:01:00,72.0,63.0,29.97,South,175,2.0,6.0,74,0.00,,,0.00,weatherlink.com 1.10,2013-07-06 13:01:00,
2013-07-06 08:16:00,73.0,63.0,29.98,South,171,1.0,8.0,72,0.00,,,0.00,weatherlink.com 1.10,2013-07-06 13:16:00,
2013-07-06 08:31:00,74.6,64.0,29.98,South,174,4.0,7.0,69,0.00,,,0.00,weatherlink.com 1.10,2013-07-06 13:31:00,
2013-07-06 08:46:00,74.3,63.0,29.98,South,188,3.0,6.0,69,0.00,,,0.00,weatherlink.com 1.10,2013-07-06 13:46:00,
2013-07-06 09:01:00,75.1,64.0,29.99,South,188,3.0,5.0,69,0.00,,,0.00,weatherlink.com 1.10,2013-07-06 14:01:00,
2013-07-06 09:16:00,76.7,64.0,29.99,South,179,3.0,9.0,66,0.00,,,0.00,weatherlink.com 1.10,2013-07-06 14:16:00,
2013-07-06 09:31:00,77.5,64.0,29.99,SE,136,9.0,12.0,64,0.00,,,0.00,weatherlink.com 1.10,2013-07-06 14:31:00,
2013-07-06 09:46:00,78.8,65.0,29.99,SE,143,9.0,11.0,62,0.00,,,0.00,weatherlink.com 1.10,2013-07-06 14:46:00,
2013-07-06 10:02:00,80.0,64.0,29.99,SSE,163,9.0,14.0,59,0.00,,,0.00,weatherlink.com 1.10,2013-07-06 15:02:00,
2013-07-06 10:17:00,81.1,64.0,29.98,SSE,153,9.0,14.0,57,0.00,,,0.00,weatherlink.com 1.10,2013-07-06 15:17:00,
2013-07-06 10:32:00,81.8,64.0,29.98,SE,144,14.0,18.0,55,0.00,,,0.00,weatherlink.com 1.10,2013-07-06 15:32:00,
2013-07-06 10:47:00,83.1,64.0,29.98,SSE,148,9.0,17.0,52,0.00,,,0.00,weatherlink.com 1.10,2013-07-06 15:47:00,
2013-07-06 11:02:00,83.7,65.0,29.98,SSE,149,7.0,18.0,53,0.00,,,0.00,weatherlink.com 1.10,2013-07-06 16:02:00,
2013-07-06 11:17:00,83.6,65.0,29.98,SE,144,6.0,14.0,53,0.00,,,0.00,weatherlink.com 1.10,2013-07-06 16:17:00,
2013-07-06 11:32:00,84.6,65.0,29.97,SE,138,12.0,15.0,52,0.00,,,0.00,weatherlink.com 1.10,2013-07-06 16:32:00,
2013-07-06 11:47:00,85.4,65.0,29.96,SSE,157,7.0,16.0,50,0.00,,,0.00,weatherlink.com 1.10,2013-07-06 16:47:00,
2013-07-06 12:17:00,86.2,65.0,29.96,South,180,9.0,13.0,50,0.00,,,0.00,weatherlink.com 1.10,2013-07-06 17:17:00,
2013-07-06 12:32:00,85.8,66.0,29.96,SE,139,5.0,17.0,52,0.00,,,0.00,weatherlink.com 1.10,2013-07-06 17:32:00,
2013-07-06 12:47:00,86.1,67.0,29.95,South,183,13.0,14.0,54,0.00,,,0.00,weatherlink.com 1.10,2013-07-06 17:47:00,
2013-07-06 13:02:00,85.3,67.0,29.95,SE,133,15.0,16.0,55,0.00,,,0.00,weatherlink.com 1.10,2013-07-06 18:02:00,
2013-07-06 13:47:00,84.9,67.0,29.94,SE,132,14.0,17.0,56,0.00,,,0.00,weatherlink.com 1.10,2013-07-06 18:47:00,
2013-07-06 14:02:00,84.9,67.0,29.94,SE,142,5.0,16.0,56,0.00,,,0.00,weatherlink.com 1.10,2013-07-06 19:02:00,
2013-07-06 14:47:00,86.5,68.0,29.93,SSE,147,10.0,20.0,54,0.00,,,0.00,weatherlink.com 1.10,2013-07-06 19:47:00,
2013-07-06 15:02:00,86.5,67.0,29.93,SSE,147,14.0,18.0,53,0.00,,,0.00,weatherlink.com 1.10,2013-07-06 20:02:00,
2013-07-06 15:17:00,86.2,68.0,29.93,SSE,153,13.0,20.0,54,0.00,,,0.00,weatherlink.com 1.10,2013-07-06 20:17:00,
2013-07-06 16:02:00,87.1,68.0,29.92,SSE,153,12.0,18.0,53,0.00,,,0.00,weatherlink.com 1.10,2013-07-06 21:02:00,
2013-07-06 16:17:00,87.4,68.0,29.92,SSE,149,6.0,17.0,53,0.00,,,0.00,weatherlink.com 1.10,2013-07-06 21:17:00,
2013-07-06 16:47:00,86.8,67.0,29.92,SSE,148,11.0,15.0,51,0.00,,,0.00,weatherlink.com 1.10,2013-07-06 21:47:00,
2013-07-06 17:02:00,87.3,66.0,29.93,SSE,161,9.0,13.0,50,0.00,,,0.00,weatherlink.com 1.10,2013-07-06 22:02:00,
2013-07-06 17:32:00,86.5,68.0,29.92,ESE,119,7.0,12.0,54,0.00,,,0.00,weatherlink.com 1.10,2013-07-06 22:32:00,
2013-07-06 17:47:00,85.9,69.0,29.91,SSE,147,5.0,7.0,57,0.00,,,0.00,weatherlink.com 1.10,2013-07-06 22:47:00,
2013-07-06 18:32:00,84.8,68.0,29.92,SSE,148,4.0,7.0,58,0.00,,,0.00,weatherlink.com 1.10,2013-07-06 23:32:00,
2013-07-06 18:47:00,84.7,68.0,29.92,SE,145,4.0,6.0,57,0.00,,,0.00,weatherlink.com 1.10,2013-07-06 23:47:00,
2013-07-06 19:02:00,84.5,68.0,29.92,SE,143,2.0,5.0,57,0.00,,,0.00,weatherlink.com 1.10,2013-07-07 00:02:00,
2013-07-06 19:17:00,84.2,67.0,29.92,SSE,152,5.0,7.0,57,0.00,,,0.00,weatherlink.com 1.10,2013-07-07 00:17:00,
2013-07-06 19:32:00,83.9,67.0,29.92,SE,144,1.0,4.0,58,0.00,,,0.00,weatherlink.com 1.10,2013-07-07 00:32:00,
2013-07-06 19:47:00,82.6,68.0,29.91,SE,127,1.0,5.0,62,0.00,,,0.00,weatherlink.com 1.10,2013-07-07 00:47:00,
2013-07-06 20:17:00,81.4,68.0,29.91,SE,140,4.0,8.0,63,0.00,,,0.00,weatherlink.com 1.10,2013-07-07 01:17:00,
2013-07-06 20:32:00,81.8,67.0,29.91,SSE,164,5.0,6.0,61,0.00,,,0.00,weatherlink.com 1.10,2013-07-07 01:32:00,
2013-07-06 20:47:00,82.5,66.0,29.92,South,185,5.0,7.0,58,0.00,,,0.00,weatherlink.com 1.10,2013-07-07 01:47:00,
2013-07-06 21:17:00,80.8,66.0,29.92,South,189,4.0,4.0,61,0.00,,,0.00,weatherlink.com 1.10,2013-07-07 02:17:00,
2013-07-06 21:47:00,80.1,66.0,29.93,South,188,0.0,1.0,62,0.00,,,0.00,weatherlink.com 1.10,2013-07-07 02:47:00,
2013-07-06 22:48:00,74.1,67.0,29.95,South,185,0.0,0.0,78,0.00,,,0.00,weatherlink.com 1.10,2013-07-07 03:48:00,
2013-07-06 23:03:00,73.6,66.0,29.95,South,185,0.0,0.0,78,0.00,,,0.00,weatherlink.com 1.10,2013-07-07 04:03:00,
2013-07-06 23:18:00,73.4,67.0,29.95,South,185,0.0,0.0,80,0.00,,,0.00,weatherlink.com 1.10,2013-07-07 04:18:00,
2013-07-06 23:33:00,73.3,67.0,29.96,South,185,0.0,0.0,81,0.00,,,0.00,weatherlink.com 1.10,2013-07-07 04:33:00,
2013-07-06 23:48:00,73.2,67.0,29.97,South,185,0.0,0.0,81,0.00,,,0.00,weatherlink.com 1.10,2013-07-07 04:48:00,